Time;durP1;ratioP1;P1;durP2;ratioP2;P2;SDS_P1;SDS_P2;PMS_P1;PMS_P2;Temp;Humidity;BMP_temperature;BMP_pressure;BME280_temperature;BME280_humidity;BME280_pressure;Samples;Min_cycle;Max_cycle;Signal;HPM_P1;HPM_P2
2023/02/03 00:01:06;;;;;;;0.40;0.40;;;;;;;;;;6305668;22;20204;-90
2023/02/03 00:04:14;;;;;;;0.37;0.37;;;;;;;;;;6309302;22;20184;-89
2023/02/03 00:07:20;;;;;;;0.50;0.50;;;;;;;;;;6308709;22;20169;-89
2023/02/03 00:10:25;;;;;;;0.87;0.87;;;;;;;;;;6308052;22;20169;-90
2023/02/03 00:13:32;;;;;;;0.80;0.80;;;;;;;;;;6306886;22;20165;-90
2023/02/03 00:16:37;;;;;;;0.60;0.60;;;;;;;;;;6304186;22;20165;-88
2023/02/03 00:19:48;;;;;;;0.63;0.63;;;;;;;;;;6304893;22;20164;-90
2023/02/03 00:22:54;;;;;;;0.50;0.50;;;;;;;;;;6305599;22;20193;-90
2023/02/03 00:25:58;;;;;;;1.43;1.00;;;;;;;;;;6304365;22;20192;-92
2023/02/03 00:29:03;;;;;;;0.40;0.40;;;;;;;;;;6304158;22;20177;-87
2023/02/03 00:32:09;;;;;;;0.50;0.43;;;;;;;;;;6303633;22;20224;-91
2023/02/03 00:35:15;;;;;;;0.40;0.40;;;;;;;;;;6302974;22;20166;-90
2023/02/03 00:38:21;;;;;;;1.30;0.87;;;;;;;;;;6302324;22;20215;-90
2023/02/03 00:41:28;;;;;;;0.87;0.87;;;;;;;;;;6302068;22;20647;-90
2023/02/03 00:44:34;;;;;;;0.40;0.40;;;;;;;;;;6302445;22;20244;-89
2023/02/03 00:47:39;;;;;;;0.30;0.30;;;;;;;;;;6301401;22;20213;-90
2023/02/03 00:50:46;;;;;;;0.40;0.40;;;;;;;;;;6301495;22;20165;-89
2023/02/03 00:53:51;;;;;;;0.43;0.43;;;;;;;;;;6302212;22;20212;-90
2023/02/03 00:56:56;;;;;;;0.70;0.70;;;;;;;;;;6301858;22;20192;-90
2023/02/03 01:00:02;;;;;;;0.40;0.40;;;;;;;;;;6303767;22;20203;-89
2023/02/03 01:03:07;;;;;;;1.03;1.03;;;;;;;;;;6304554;22;20188;-92
2023/02/03 01:06:15;;;;;;;1.03;0.63;;;;;;;;;;6300907;22;20168;-89
2023/02/03 01:09:20;;;;;;;0.40;0.40;;;;;;;;;;6303207;22;20185;-91
2023/02/03 01:12:25;;;;;;;0.60;0.60;;;;;;;;;;6302143;22;20276;-90
2023/02/03 01:15:30;;;;;;;0.67;0.50;;;;;;;;;;6302445;22;20169;-87
2023/02/03 01:18:39;;;;;;;0.37;0.37;;;;;;;;;;6301754;22;20169;-89
2023/02/03 01:21:46;;;;;;;0.67;0.67;;;;;;;;;;6299611;22;20208;-90
2023/02/03 01:24:51;;;;;;;0.40;0.40;;;;;;;;;;6300593;22;20161;-90
2023/02/03 01:27:56;;;;;;;0.60;0.60;;;;;;;;;;6307915;22;20214;-91
2023/02/03 01:31:10;;;;;;;0.47;0.47;;;;;;;;;;6313302;22;20208;-91
2023/02/03 01:34:17;;;;;;;0.97;0.97;;;;;;;;;;6314254;22;20181;-91
2023/02/03 01:37:24;;;;;;;3.70;1.60;;;;;;;;;;6306499;22;20231;-91
2023/02/03 01:40:28;;;;;;;1.00;0.90;;;;;;;;;;6302420;22;20210;-91
2023/02/03 01:43:34;;;;;;;0.70;0.70;;;;;;;;;;6301564;22;20296;-91
2023/02/03 01:46:43;;;;;;;2.10;0.97;;;;;;;;;;6303190;22;20169;-89
2023/02/03 01:49:50;;;;;;;0.90;0.83;;;;;;;;;;6302532;22;20169;-90
2023/02/03 01:52:59;;;;;;;0.50;0.50;;;;;;;;;;6299335;22;20165;-90
2023/02/03 01:56:04;;;;;;;0.43;0.43;;;;;;;;;;6300498;22;20172;-91
2023/02/03 01:59:10;;;;;;;0.50;0.50;;;;;;;;;;6302578;22;20161;-89
2023/02/03 02:02:21;;;;;;;0.40;0.40;;;;;;;;;;6301006;22;20148;-88
2023/02/03 02:05:28;;;;;;;0.70;0.70;;;;;;;;;;6300666;22;20161;-89
2023/02/03 02:08:35;;;;;;;0.73;0.70;;;;;;;;;;6298213;22;20160;-90
2023/02/03 02:11:40;;;;;;;1.23;1.10;;;;;;;;;;6299891;22;20176;-93
2023/02/03 02:14:47;;;;;;;0.93;0.80;;;;;;;;;;6299172;22;20173;-88
2023/02/03 02:17:57;;;;;;;0.60;0.60;;;;;;;;;;6298367;22;20495;-88
2023/02/03 02:21:19;;;;;;;0.50;0.50;;;;;;;;;;6299461;22;20289;-89
2023/02/03 02:24:49;;;;;;;2.10;0.80;;;;;;;;;;6299986;22;20700;-89
2023/02/03 02:28:13;;;;;;;0.67;0.67;;;;;;;;;;6301302;22;20177;-89
2023/02/03 02:31:39;;;;;;;2.63;0.90;;;;;;;;;;6298916;22;20177;-89
2023/02/03 02:34:51;;;;;;;0.60;0.60;;;;;;;;;;6299833;22;20177;-89
2023/02/03 02:38:00;;;;;;;0.53;0.53;;;;;;;;;;6297662;22;20169;-90
2023/02/03 02:41:11;;;;;;;1.10;1.00;;;;;;;;;;6301451;22;20166;-89
2023/02/03 02:44:17;;;;;;;1.13;0.93;;;;;;;;;;6299386;22;20209;-89
2023/02/03 02:47:24;;;;;;;1.23;0.80;;;;;;;;;;6299937;22;20158;-91
2023/02/03 02:50:32;;;;;;;0.50;0.50;;;;;;;;;;6303075;22;20152;-91
2023/02/03 02:53:39;;;;;;;0.93;0.93;;;;;;;;;;6300210;22;20234;-91
2023/02/03 02:56:45;;;;;;;1.57;0.77;;;;;;;;;;6300480;22;20204;-91
2023/02/03 03:00:15;;;;;;;0.73;0.73;;;;;;;;;;6299496;22;20168;-90
2023/02/03 03:03:23;;;;;;;0.60;0.60;;;;;;;;;;6300771;22;20211;-88
2023/02/03 03:06:30;;;;;;;0.60;0.60;;;;;;;;;;6299523;22;20161;-89
2023/02/03 03:09:37;;;;;;;2.60;1.30;;;;;;;;;;6301248;22;20164;-90
2023/02/03 03:12:47;;;;;;;0.50;0.50;;;;;;;;;;6299550;22;20174;-91
2023/02/03 03:15:53;;;;;;;1.10;1.00;;;;;;;;;;6301175;22;20166;-93
2023/02/03 03:19:03;;;;;;;0.77;0.77;;;;;;;;;;6299301;22;20174;-89
2023/02/03 03:22:09;;;;;;;1.17;0.70;;;;;;;;;;6300060;22;20169;-90
2023/02/03 03:25:16;;;;;;;0.40;0.40;;;;;;;;;;6302535;22;20177;-90
2023/02/03 03:28:25;;;;;;;1.03;1.03;;;;;;;;;;6301082;22;20211;-91
2023/02/03 03:31:31;;;;;;;0.70;0.70;;;;;;;;;;6300906;22;20227;-89
2023/02/03 03:34:37;;;;;;;0.73;0.73;;;;;;;;;;6300724;22;20168;-89
2023/02/03 03:37:48;;;;;;;0.77;0.77;;;;;;;;;;6299555;22;20165;-90
2023/02/03 03:40:56;;;;;;;1.20;0.97;;;;;;;;;;6301153;22;20174;-90
2023/02/03 03:44:03;;;;;;;0.87;0.80;;;;;;;;;;6301679;22;20252;-90
2023/02/03 03:47:11;;;;;;;0.50;0.50;;;;;;;;;;6301200;22;20303;-90
2023/02/03 03:50:22;;;;;;;0.60;0.60;;;;;;;;;;6302728;22;20152;-89
2023/02/03 03:53:29;;;;;;;2.40;1.03;;;;;;;;;;6302109;22;20214;-90
2023/02/03 03:56:36;;;;;;;0.30;0.30;;;;;;;;;;6301465;22;20165;-89
2023/02/03 03:59:45;;;;;;;1.03;0.70;;;;;;;;;;6301763;22;20173;-92
2023/02/03 04:02:53;;;;;;;0.93;0.93;;;;;;;;;;6319326;22;20212;-91
2023/02/03 04:05:59;;;;;;;2.07;1.33;;;;;;;;;;6301977;22;20157;-90
2023/02/03 04:09:04;;;;;;;1.93;1.00;;;;;;;;;;6303397;22;20165;-90
2023/02/03 04:12:17;;;;;;;0.53;0.53;;;;;;;;;;6302500;22;20212;-90
2023/02/03 04:15:22;;;;;;;6.87;1.13;;;;;;;;;;6302186;22;20169;-90
2023/02/03 04:18:29;;;;;;;0.57;0.57;;;;;;;;;;6320001;22;20176;-89
2023/02/03 04:21:36;;;;;;;0.40;0.40;;;;;;;;;;6302856;22;20183;-89
2023/02/03 04:24:40;;;;;;;0.50;0.50;;;;;;;;;;6302113;22;20271;-90
2023/02/03 04:27:46;;;;;;;1.13;1.03;;;;;;;;;;6304106;22;20169;-90
2023/02/03 04:30:51;;;;;;;0.87;0.73;;;;;;;;;;6304573;22;20226;-90
2023/02/03 04:33:57;;;;;;;3.70;1.03;;;;;;;;;;6303422;22;20394;-90
2023/02/03 04:37:03;;;;;;;1.10;0.97;;;;;;;;;;6302651;22;20165;-90
2023/02/03 04:40:09;;;;;;;1.17;1.03;;;;;;;;;;6303811;22;20165;-89
2023/02/03 04:43:15;;;;;;;0.50;0.50;;;;;;;;;;6321991;22;20221;-89
2023/02/03 04:46:21;;;;;;;1.03;0.77;;;;;;;;;;6302693;22;20184;-91
2023/02/03 04:49:26;;;;;;;0.80;0.80;;;;;;;;;;6301871;22;20165;-90
2023/02/03 04:52:33;;;;;;;0.50;0.50;;;;;;;;;;6301543;22;20173;-88
2023/02/03 04:55:38;;;;;;;1.03;0.77;;;;;;;;;;6318875;22;20165;-89
2023/02/03 04:58:43;;;;;;;0.90;0.90;;;;;;;;;;6301625;22;20510;-89
2023/02/03 05:01:54;;;;;;;1.53;0.80;;;;;;;;;;6298551;22;20663;-89
2023/02/03 05:04:59;;;;;;;1.30;1.20;;;;;;;;;;6300452;22;20193;-89
2023/02/03 05:08:06;;;;;;;1.23;1.17;;;;;;;;;;6298052;22;20595;-90
2023/02/03 05:11:28;;;;;;;1.93;1.83;;;;;;;;;;6317624;22;20260;-90
2023/02/03 05:14:33;;;;;;;5.33;1.63;;;;;;;;;;6298427;22;20678;-88
2023/02/03 05:17:39;;;;;;;0.97;0.90;;;;;;;;;;6297998;22;20188;-88
2023/02/03 05:20:44;;;;;;;0.80;0.80;;;;;;;;;;6298789;22;20232;-90
2023/02/03 05:23:51;;;;;;;1.13;0.80;;;;;;;;;;6299209;22;20263;-88
2023/02/03 05:26:56;;;;;;;0.80;0.80;;;;;;;;;;6299563;22;20170;-87
2023/02/03 05:30:01;;;;;;;0.67;0.63;;;;;;;;;;6300178;22;20164;-89
2023/02/03 05:33:07;;;;;;;0.53;0.50;;;;;;;;;;6300138;22;20219;-90
2023/02/03 05:36:11;;;;;;;0.40;0.40;;;;;;;;;;6300589;22;20242;-89
2023/02/03 05:39:18;;;;;;;0.90;0.90;;;;;;;;;;6299859;22;20187;-90
2023/02/03 05:42:22;;;;;;;1.77;1.10;;;;;;;;;;6301198;22;20221;-90
2023/02/03 05:45:27;;;;;;;1.33;1.00;;;;;;;;;;6301845;22;20705;-87
2023/02/03 05:48:32;;;;;;;0.30;0.30;;;;;;;;;;6302694;22;20629;-91
2023/02/03 05:51:39;;;;;;;0.70;0.70;;;;;;;;;;6303828;22;20204;-92
2023/02/03 05:54:45;;;;;;;0.60;0.60;;;;;;;;;;6300768;22;20219;-90
2023/02/03 05:57:51;;;;;;;0.40;0.40;;;;;;;;;;6302929;22;20169;-88
2023/02/03 06:01:23;;;;;;;2.00;1.03;;;;;;;;;;6300460;22;20165;-90
2023/02/03 06:04:28;;;;;;;0.97;0.97;;;;;;;;;;6304509;22;20188;-91
2023/02/03 06:07:33;;;;;;;0.40;0.40;;;;;;;;;;6302770;22;20612;-94
2023/02/03 06:10:40;;;;;;;0.40;0.40;;;;;;;;;;6303530;22;20165;-89
2023/02/03 06:13:51;;;;;;;0.40;0.40;;;;;;;;;;6301901;22;20168;-90
2023/02/03 06:16:57;;;;;;;0.40;0.40;;;;;;;;;;6302262;22;20169;-92
2023/02/03 06:20:04;;;;;;;0.30;0.30;;;;;;;;;;6302644;22;20169;-91
2023/02/03 06:23:10;;;;;;;0.37;0.37;;;;;;;;;;6302391;22;20184;-90
2023/02/03 06:26:17;;;;;;;1.00;1.00;;;;;;;;;;6306717;22;20165;-90
2023/02/03 06:29:22;;;;;;;0.50;0.50;;;;;;;;;;6302032;22;20503;-88
2023/02/03 06:32:29;;;;;;;0.40;0.40;;;;;;;;;;6322702;22;20149;-87
2023/02/03 06:35:35;;;;;;;0.30;0.30;;;;;;;;;;6304552;22;20164;-89
2023/02/03 06:38:40;;;;;;;0.40;0.33;;;;;;;;;;6304967;22;20164;-86
2023/02/03 06:41:50;;;;;;;0.40;0.40;;;;;;;;;;6305289;22;20165;-90
2023/02/03 06:44:55;;;;;;;0.60;0.60;;;;;;;;;;6304032;22;20342;-89
2023/02/03 06:48:00;;;;;;;0.33;0.33;;;;;;;;;;6300624;22;20164;-90
2023/02/03 06:51:05;;;;;;;0.53;0.40;;;;;;;;;;6303799;22;20226;-89
2023/02/03 06:54:11;;;;;;;0.80;0.80;;;;;;;;;;6304904;22;20185;-87
2023/02/03 06:57:17;;;;;;;9.63;1.50;;;;;;;;;;6300200;22;20217;-90
2023/02/03 07:00:23;;;;;;;0.57;0.50;;;;;;;;;;6301055;22;20177;-90
2023/02/03 07:03:28;;;;;;;0.40;0.40;;;;;;;;;;6301840;22;20352;-92
2023/02/03 07:06:34;;;;;;;0.40;0.40;;;;;;;;;;6300815;22;20631;-89
2023/02/03 07:09:39;;;;;;;0.43;0.43;;;;;;;;;;6299877;22;20165;-91
2023/02/03 07:12:45;;;;;;;0.60;0.60;;;;;;;;;;6299845;22;20878;-92
2023/02/03 07:15:50;;;;;;;0.40;0.40;;;;;;;;;;6301735;22;20153;-90
2023/02/03 07:18:56;;;;;;;0.40;0.40;;;;;;;;;;6299633;22;20173;-88
2023/02/03 07:22:01;;;;;;;0.50;0.50;;;;;;;;;;6302397;22;20536;-89
2023/02/03 07:25:07;;;;;;;0.40;0.40;;;;;;;;;;6300350;22;20208;-91
2023/02/03 07:28:14;;;;;;;0.30;0.30;;;;;;;;;;6299543;22;20187;-89
2023/02/03 07:31:19;;;;;;;0.40;0.40;;;;;;;;;;6302393;22;20148;-88
2023/02/03 07:34:25;;;;;;;2.17;0.87;;;;;;;;;;6303823;22;20181;-91
2023/02/03 07:37:30;;;;;;;0.57;0.57;;;;;;;;;;6302143;22;20185;-90
2023/02/03 07:40:35;;;;;;;0.40;0.40;;;;;;;;;;6298603;22;20591;-91
2023/02/03 07:43:41;;;;;;;0.60;0.60;;;;;;;;;;6300638;22;20168;-93
2023/02/03 07:46:46;;;;;;;0.40;0.40;;;;;;;;;;6300784;22;20160;-90
2023/02/03 07:49:52;;;;;;;0.30;0.30;;;;;;;;;;6302559;22;20181;-93
2023/02/03 07:52:57;;;;;;;0.43;0.43;;;;;;;;;;6302142;22;20284;-89
2023/02/03 07:56:03;;;;;;;0.40;0.40;;;;;;;;;;6303212;22;20620;-92
2023/02/03 07:59:09;;;;;;;0.30;0.30;;;;;;;;;;6304325;22;20168;-92
2023/02/03 08:05:47;;;;;;;0.87;0.60;;;;;;;;;;6302742;22;20192;-90
2023/02/03 08:08:53;;;;;;;0.83;0.67;;;;;;;;;;6301344;22;20269;-89
2023/02/03 08:12:02;;;;;;;0.40;0.40;;;;;;;;;;6300327;22;20658;-91
2023/02/03 08:15:09;;;;;;;0.77;0.77;;;;;;;;;;6299436;22;20173;-92
2023/02/03 08:18:15;;;;;;;0.47;0.47;;;;;;;;;;6300389;22;20184;-92
2023/02/03 08:21:19;;;;;;;0.43;0.43;;;;;;;;;;6302292;22;20208;-91
2023/02/03 08:24:24;;;;;;;1.47;0.87;;;;;;;;;;6300822;22;20208;-89
2023/02/03 08:27:29;;;;;;;0.63;0.50;;;;;;;;;;6301748;22;20165;-90
2023/02/03 08:30:36;;;;;;;0.47;0.47;;;;;;;;;;6301961;22;20235;-90
2023/02/03 08:33:41;;;;;;;0.63;0.63;;;;;;;;;;6301864;22;20229;-88
2023/02/03 08:36:46;;;;;;;0.80;0.80;;;;;;;;;;6302988;22;20620;-90
2023/02/03 08:39:52;;;;;;;0.50;0.50;;;;;;;;;;6303422;22;20204;-88
2023/02/03 08:42:58;;;;;;;0.30;0.30;;;;;;;;;;6306410;22;20166;-91
2023/02/03 08:46:05;;;;;;;0.40;0.40;;;;;;;;;;6303777;22;20323;-89
2023/02/03 08:49:10;;;;;;;0.30;0.30;;;;;;;;;;6302133;22;20484;-88
2023/02/03 08:52:16;;;;;;;0.30;0.30;;;;;;;;;;6303509;22;20216;-88
2023/02/03 08:55:21;;;;;;;0.53;0.53;;;;;;;;;;6302648;22;20166;-87
2023/02/03 08:58:27;;;;;;;0.30;0.30;;;;;;;;;;6304367;22;20586;-88
2023/02/03 09:01:35;;;;;;;0.30;0.30;;;;;;;;;;6303395;22;20233;-89
2023/02/03 09:04:41;;;;;;;0.40;0.40;;;;;;;;;;6303963;22;20237;-90
2023/02/03 09:07:52;;;;;;;0.30;0.30;;;;;;;;;;6301090;22;20233;-88
2023/02/03 09:10:58;;;;;;;0.73;0.53;;;;;;;;;;6301567;22;20232;-89
2023/02/03 09:14:03;;;;;;;0.30;0.30;;;;;;;;;;6303523;22;20169;-88
2023/02/03 09:17:11;;;;;;;3.50;1.53;;;;;;;;;;6301427;22;20172;-90
2023/02/03 09:23:48;;;;;;;3.60;1.30;;;;;;;;;;6301663;22;20161;-88
2023/02/03 09:26:54;;;;;;;6.37;1.40;;;;;;;;;;6301963;22;20173;-88
2023/02/03 09:29:59;;;;;;;3.37;1.43;;;;;;;;;;6302513;22;20196;-88
2023/02/03 09:33:06;;;;;;;2.67;1.20;;;;;;;;;;6301681;22;20519;-91
2023/02/03 09:36:11;;;;;;;7.60;2.37;;;;;;;;;;6302839;22;20193;-91
2023/02/03 09:39:16;;;;;;;3.33;1.20;;;;;;;;;;6300238;22;20169;-89
2023/02/03 09:42:43;;;;;;;4.23;1.30;;;;;;;;;;6302926;22;20173;-87
2023/02/03 09:45:49;;;;;;;1.90;0.87;;;;;;;;;;6321254;22;20205;-88
2023/02/03 09:48:57;;;;;;;4.73;1.30;;;;;;;;;;6304297;22;20292;-87
2023/02/03 09:52:04;;;;;;;1.97;1.10;;;;;;;;;;6303401;22;20561;-90
2023/02/03 09:55:13;;;;;;;2.43;1.20;;;;;;;;;;6302161;22;20164;-89
2023/02/03 09:58:21;;;;;;;6.77;1.50;;;;;;;;;;6302596;22;20177;-90
2023/02/03 10:01:31;;;;;;;2.37;1.00;;;;;;;;;;6301852;22;20152;-91
2023/02/03 10:04:39;;;;;;;2.33;1.00;;;;;;;;;;6302463;22;20250;-87
2023/02/03 10:07:48;;;;;;;5.80;1.30;;;;;;;;;;6303774;22;20169;-90
2023/02/03 10:11:09;;;;;;;2.13;0.90;;;;;;;;;;6301790;22;20217;-89
2023/02/03 10:14:23;;;;;;;5.27;0.93;;;;;;;;;;6303423;22;20169;-86
2023/02/03 10:17:31;;;;;;;4.67;1.30;;;;;;;;;;6302833;22;20169;-90
2023/02/03 10:20:40;;;;;;;2.17;1.07;;;;;;;;;;6301238;22;20173;-89
2023/02/03 10:23:47;;;;;;;3.33;1.23;;;;;;;;;;6301343;22;20173;-89
2023/02/03 10:26:53;;;;;;;3.43;1.20;;;;;;;;;;6301976;22;20189;-90
2023/02/03 10:30:00;;;;;;;8.30;2.17;;;;;;;;;;6303191;22;20165;-91
2023/02/03 10:33:11;;;;;;;6.37;1.53;;;;;;;;;;6303321;22;20204;-90
2023/02/03 10:36:20;;;;;;;4.00;1.47;;;;;;;;;;6304029;22;20511;-91
2023/02/03 10:39:30;;;;;;;7.17;1.83;;;;;;;;;;6300513;22;20239;-89
2023/02/03 10:45:54;;;;;;;8.03;2.87;;;;;;;;;;6301518;22;20261;-89
2023/02/03 10:48:59;;;;;;;6.53;2.00;;;;;;;;;;6302106;22;20628;-90
2023/02/03 10:52:06;;;;;;;4.73;1.80;;;;;;;;;;6302005;22;20169;-92
2023/02/03 10:55:29;;;;;;;3.67;1.73;;;;;;;;;;6301581;22;20157;-88
2023/02/03 10:58:35;;;;;;;4.73;1.30;;;;;;;;;;6302339;22;20173;-90
2023/02/03 11:01:42;;;;;;;4.53;1.67;;;;;;;;;;6302851;22;20160;-89
2023/02/03 11:04:50;;;;;;;3.87;1.17;;;;;;;;;;6302802;22;20164;-87
2023/02/03 11:07:57;;;;;;;4.43;1.60;;;;;;;;;;6305372;22;20246;-86
2023/02/03 11:11:03;;;;;;;3.83;1.50;;;;;;;;;;6304933;22;20153;-89
2023/02/03 11:14:13;;;;;;;6.17;1.83;;;;;;;;;;6304568;22;20163;-89
2023/02/03 11:17:21;;;;;;;4.37;1.53;;;;;;;;;;6307953;22;20169;-87
2023/02/03 11:20:34;;;;;;;2.33;1.10;;;;;;;;;;6305107;22;20176;-88
2023/02/03 11:23:47;;;;;;;5.00;1.83;;;;;;;;;;6321858;22;20208;-88
2023/02/03 11:26:56;;;;;;;4.07;1.20;;;;;;;;;;6302316;22;20244;-90
2023/02/03 11:30:11;;;;;;;3.10;1.40;;;;;;;;;;6302229;22;20160;-89
2023/02/03 11:33:18;;;;;;;3.67;1.20;;;;;;;;;;6302321;22;20193;-91
2023/02/03 11:36:26;;;;;;;2.03;1.10;;;;;;;;;;6301309;22;20539;-89
2023/02/03 11:39:34;;;;;;;2.10;1.03;;;;;;;;;;6302074;22;20240;-87
2023/02/03 11:42:41;;;;;;;4.03;1.37;;;;;;;;;;6304752;22;20235;-89
2023/02/03 11:45:46;;;;;;;4.17;1.27;;;;;;;;;;6303709;22;20207;-89
2023/02/03 11:48:58;;;;;;;5.63;1.20;;;;;;;;;;6301294;22;20167;-90
2023/02/03 11:52:07;;;;;;;5.37;1.63;;;;;;;;;;6300337;22;20153;-87
2023/02/03 11:55:18;;;;;;;2.97;1.40;;;;;;;;;;6301329;22;20214;-87
2023/02/03 11:58:38;;;;;;;5.57;1.97;;;;;;;;;;6302350;22;20165;-89
2023/02/03 12:02:00;;;;;;;3.20;1.57;;;;;;;;;;6302536;22;20168;-87
2023/02/03 12:05:13;;;;;;;4.53;1.13;;;;;;;;;;6303553;22;20230;-87
2023/02/03 12:08:30;;;;;;;3.73;1.60;;;;;;;;;;6304658;22;20170;-90
2023/02/03 12:11:46;;;;;;;4.57;1.30;;;;;;;;;;6302175;22;20165;-90
2023/02/03 12:14:56;;;;;;;5.27;2.10;;;;;;;;;;6302790;22;20177;-90
2023/02/03 12:18:09;;;;;;;3.40;1.40;;;;;;;;;;6300964;22;20173;-88
2023/02/03 12:21:23;;;;;;;3.80;1.57;;;;;;;;;;6304913;22;20542;-89
2023/02/03 12:24:34;;;;;;;2.10;1.40;;;;;;;;;;6301851;22;20173;-89
2023/02/03 12:27:44;;;;;;;2.37;1.23;;;;;;;;;;6299731;22;20288;-89
2023/02/03 12:30:52;;;;;;;2.60;1.40;;;;;;;;;;6304358;22;20170;-89
2023/02/03 12:34:01;;;;;;;5.83;1.50;;;;;;;;;;6304227;22;20164;-88
2023/02/03 12:37:09;;;;;;;1.93;0.80;;;;;;;;;;6305001;22;20173;-88
2023/02/03 12:40:16;;;;;;;4.60;1.60;;;;;;;;;;6324513;22;20230;-89
2023/02/03 12:43:30;;;;;;;3.80;1.67;;;;;;;;;;6323181;22;20168;-89
2023/02/03 12:46:39;;;;;;;3.77;1.60;;;;;;;;;;6303411;22;20522;-89
2023/02/03 12:49:47;;;;;;;3.63;1.80;;;;;;;;;;6306254;22;20157;-90
2023/02/03 12:52:55;;;;;;;3.73;1.60;;;;;;;;;;6303312;22;20204;-90
2023/02/03 12:56:03;;;;;;;4.43;1.30;;;;;;;;;;6305083;22;20514;-92
2023/02/03 12:59:15;;;;;;;2.13;1.40;;;;;;;;;;6305250;22;20500;-91
2023/02/03 13:02:24;;;;;;;7.93;2.40;;;;;;;;;;6303128;22;20169;-90
2023/02/03 13:05:31;;;;;;;2.57;1.47;;;;;;;;;;6303979;22;20162;-90
2023/02/03 13:08:38;;;;;;;1.90;1.07;;;;;;;;;;6306000;22;20157;-90
2023/02/03 13:11:46;;;;;;;4.83;1.87;;;;;;;;;;6301332;22;20165;-91
2023/02/03 13:14:56;;;;;;;3.77;1.53;;;;;;;;;;6302883;22;20188;-87
2023/02/03 13:18:28;;;;;;;2.57;1.20;;;;;;;;;;6301588;22;20165;-89
2023/02/03 13:21:33;;;;;;;2.30;1.30;;;;;;;;;;6301947;22;20158;-91
2023/02/03 13:24:39;;;;;;;2.87;1.40;;;;;;;;;;6302285;22;20217;-89
2023/02/03 13:27:47;;;;;;;5.40;2.43;;;;;;;;;;6305424;22;20212;-91
2023/02/03 13:31:00;;;;;;;4.60;1.63;;;;;;;;;;6305568;22;20651;-87
2023/02/03 13:34:16;;;;;;;2.93;1.27;;;;;;;;;;6305252;22;20168;-89
2023/02/03 13:37:32;;;;;;;4.03;1.40;;;;;;;;;;6305092;22;20222;-92
2023/02/03 13:40:42;;;;;;;5.10;1.43;;;;;;;;;;6304400;22;20173;-88
2023/02/03 13:43:49;;;;;;;2.07;1.00;;;;;;;;;;6288126;22;20165;-89
2023/02/03 13:46:57;;;;;;;4.70;1.13;;;;;;;;;;6306016;22;20176;-87
2023/02/03 13:50:04;;;;;;;1.67;1.10;;;;;;;;;;6302952;22;20170;-88
2023/02/03 13:53:18;;;;;;;4.20;1.73;;;;;;;;;;6303662;22;20165;-90
2023/02/03 13:56:23;;;;;;;5.60;1.37;;;;;;;;;;6306932;22;20232;-89
2023/02/03 13:59:42;;;;;;;2.00;1.00;;;;;;;;;;6305962;22;20178;-90
2023/02/03 14:03:06;;;;;;;3.00;1.00;;;;;;;;;;6306604;22;20212;-89
2023/02/03 14:06:33;;;;;;;2.47;1.03;;;;;;;;;;6306192;22;20208;-90
2023/02/03 14:09:42;;;;;;;1.83;1.20;;;;;;;;;;6304751;22;20196;-89
2023/02/03 14:16:39;;;;;;;12.93;3.00;;;;;;;;;;6306026;22;20177;-92
2023/02/03 14:19:58;;;;;;;5.00;1.50;;;;;;;;;;6304617;22;20165;-89
2023/02/03 14:23:12;;;;;;;5.37;1.90;;;;;;;;;;6305435;22;20226;-87
2023/02/03 14:26:29;;;;;;;4.73;1.90;;;;;;;;;;6305444;22;20241;-87
2023/02/03 14:29:36;;;;;;;9.40;1.87;;;;;;;;;;6303092;22;20180;-89
2023/02/03 14:32:51;;;;;;;4.10;1.13;;;;;;;;;;6305870;22;20668;-89
2023/02/03 14:35:56;;;;;;;3.80;1.50;;;;;;;;;;6303247;22;20164;-89
2023/02/03 14:39:05;;;;;;;3.67;1.70;;;;;;;;;;6303298;22;20169;-89
2023/02/03 14:42:16;;;;;;;4.70;1.27;;;;;;;;;;6307707;22;20235;-87
2023/02/03 14:45:32;;;;;;;3.90;1.37;;;;;;;;;;6307122;22;20228;-93
2023/02/03 14:48:56;;;;;;;5.53;1.70;;;;;;;;;;6304725;22;20166;-91
2023/02/03 14:52:08;;;;;;;4.03;1.20;;;;;;;;;;6305003;22;20206;-89
2023/02/03 14:55:42;;;;;;;7.63;1.20;;;;;;;;;;6305032;22;20160;-91
2023/02/03 14:58:50;;;;;;;2.60;0.90;;;;;;;;;;6321070;22;20173;-90
2023/02/03 15:02:22;;;;;;;2.63;0.80;;;;;;;;;;6303631;22;20178;-88
2023/02/03 15:05:38;;;;;;;4.30;1.00;;;;;;;;;;6305526;22;20176;-90
2023/02/03 15:08:44;;;;;;;1.30;0.83;;;;;;;;;;6305187;22;20161;-89
2023/02/03 15:11:51;;;;;;;1.80;1.00;;;;;;;;;;6303047;22;20170;-89
2023/02/03 15:15:11;;;;;;;3.33;0.97;;;;;;;;;;6302469;22;20165;-90
2023/02/03 15:18:42;;;;;;;3.77;0.90;;;;;;;;;;6301960;22;20189;-87
2023/02/03 15:21:50;;;;;;;6.70;1.37;;;;;;;;;;6304496;22;20172;-91
2023/02/03 15:24:59;;;;;;;3.93;1.20;;;;;;;;;;6303914;22;20228;-91
2023/02/03 15:28:15;;;;;;;2.13;1.10;;;;;;;;;;6302736;22;20208;-90
2023/02/03 15:31:24;;;;;;;4.70;1.10;;;;;;;;;;6306772;22;20216;-89
2023/02/03 15:34:30;;;;;;;5.13;1.90;;;;;;;;;;6307092;22;20173;-89
2023/02/03 15:37:42;;;;;;;2.90;1.20;;;;;;;;;;6304558;22;20212;-92
2023/02/03 15:40:49;;;;;;;1.83;1.13;;;;;;;;;;6305797;22;20164;-90
2023/02/03 15:43:55;;;;;;;3.30;1.00;;;;;;;;;;6305930;22;20199;-90
2023/02/03 15:47:01;;;;;;;4.70;1.10;;;;;;;;;;6304784;22;20235;-91
2023/02/03 15:50:09;;;;;;;3.73;1.17;;;;;;;;;;6313203;22;20190;-91
2023/02/03 15:53:19;;;;;;;3.70;1.53;;;;;;;;;;6305800;22;20180;-88
2023/02/03 15:56:34;;;;;;;9.00;1.67;;;;;;;;;;6303931;22;20237;-91
2023/02/03 15:59:42;;;;;;;4.77;1.57;;;;;;;;;;6303337;22;20216;-88
2023/02/03 16:02:47;;;;;;;5.17;2.10;;;;;;;;;;6308331;22;20160;-92
2023/02/03 16:06:06;;;;;;;4.27;1.80;;;;;;;;;;6309854;22;20169;-92
2023/02/03 16:09:27;;;;;;;5.03;2.23;;;;;;;;;;6307454;22;20173;-90
2023/02/03 16:12:37;;;;;;;3.20;1.87;;;;;;;;;;6308849;22;20197;-90
2023/02/03 16:15:42;;;;;;;4.80;2.07;;;;;;;;;;6307012;22;20145;-91
2023/02/03 16:18:55;;;;;;;2.03;1.23;;;;;;;;;;6306048;22;20251;-90
2023/02/03 16:22:01;;;;;;;5.47;1.80;;;;;;;;;;6306735;22;20165;-89
2023/02/03 16:25:16;;;;;;;3.87;1.67;;;;;;;;;;6306103;22;20189;-90
2023/02/03 16:52:24;;;;;;;2.37;1.40;;;;;;;;;;6305199;22;20177;-90
2023/02/03 16:55:39;;;;;;;1.60;1.20;;;;;;;;;;6305252;22;20169;-91
2023/02/03 16:58:46;;;;;;;1.60;1.10;;;;;;;;;;6307882;22;20173;-88
2023/02/03 17:02:17;;;;;;;1.67;1.00;;;;;;;;;;6306892;22;20145;-89
2023/02/03 17:05:24;;;;;;;2.80;1.20;;;;;;;;;;6310501;22;20241;-90
2023/02/03 17:08:30;;;;;;;4.90;1.43;;;;;;;;;;6306998;22;20520;-89
2023/02/03 17:11:35;;;;;;;5.43;1.60;;;;;;;;;;6306112;22;20236;-88
2023/02/03 17:14:41;;;;;;;3.83;1.73;;;;;;;;;;6307658;22;20161;-90
2023/02/03 17:17:50;;;;;;;4.03;1.77;;;;;;;;;;6308064;22;20191;-90
2023/02/03 17:21:05;;;;;;;3.57;1.80;;;;;;;;;;6307820;22;20217;-90
2023/02/03 17:24:11;;;;;;;0.30;0.30;;;;;;;;;;6310657;22;20166;-92
2023/02/03 17:27:16;;;;;;;0.33;0.33;;;;;;;;;;6306927;22;20193;-91
2023/02/03 17:30:22;;;;;;;0.30;0.30;;;;;;;;;;6306403;22;20165;-90
2023/02/03 17:33:30;;;;;;;0.30;0.30;;;;;;;;;;6307469;22;20144;-90
2023/02/03 17:36:38;;;;;;;0.30;0.30;;;;;;;;;;6326738;22;20707;-91
2023/02/03 17:39:46;;;;;;;0.30;0.30;;;;;;;;;;6310368;22;20161;-90
2023/02/03 17:42:59;;;;;;;0.40;0.40;;;;;;;;;;6290747;22;20209;-91
2023/02/03 17:46:07;;;;;;;0.30;0.30;;;;;;;;;;6306605;22;20197;-89
2023/02/03 17:49:12;;;;;;;0.30;0.30;;;;;;;;;;6305013;22;20225;-89
2023/02/03 17:52:19;;;;;;;0.30;0.30;;;;;;;;;;6308181;22;20496;-90
2023/02/03 17:55:25;;;;;;;1.30;0.73;;;;;;;;;;6305397;22;20165;-90
2023/02/03 17:58:31;;;;;;;1.13;1.03;;;;;;;;;;6307022;22;20156;-91
2023/02/03 18:04:58;;;;;;;0.30;0.30;;;;;;;;;;6308737;22;20263;-89
2023/02/03 18:08:08;;;;;;;1.60;0.60;;;;;;;;;;6306922;22;20192;-90
2023/02/03 18:11:14;;;;;;;0.67;0.67;;;;;;;;;;6304209;22;20259;-93
2023/02/03 18:14:21;;;;;;;0.30;0.30;;;;;;;;;;6309318;22;20215;-90
2023/02/03 18:17:27;;;;;;;0.30;0.30;;;;;;;;;;6305405;22;20459;-90
2023/02/03 18:20:40;;;;;;;0.37;0.37;;;;;;;;;;6305540;22;20218;-89
2023/02/03 18:23:49;;;;;;;0.47;0.47;;;;;;;;;;6306295;22;20247;-90
2023/02/03 18:26:55;;;;;;;0.57;0.57;;;;;;;;;;6305397;22;20168;-90
2023/02/03 18:30:01;;;;;;;0.63;0.63;;;;;;;;;;6306547;22;20165;-91
2023/02/03 18:33:07;;;;;;;0.30;0.30;;;;;;;;;;6309410;22;20169;-92
2023/02/03 18:36:13;;;;;;;0.30;0.30;;;;;;;;;;6307536;22;20204;-90
2023/02/03 18:39:21;;;;;;;0.30;0.30;;;;;;;;;;6307090;22;20224;-90
2023/02/03 18:42:27;;;;;;;0.30;0.30;;;;;;;;;;6306902;22;20185;-92
2023/02/03 18:45:41;;;;;;;0.20;0.20;;;;;;;;;;6308489;22;20188;-91
2023/02/03 18:48:47;;;;;;;0.30;0.30;;;;;;;;;;6305084;22;20185;-92
2023/02/03 18:55:16;;;;;;;1.10;0.50;;;;;;;;;;6304271;22;20193;-89
2023/02/03 18:58:22;;;;;;;0.87;0.83;;;;;;;;;;6303229;22;20205;-91
2023/02/03 19:01:33;;;;;;;0.83;0.70;;;;;;;;;;6307672;22;20181;-90
2023/02/03 19:04:38;;;;;;;0.30;0.30;;;;;;;;;;6304811;22;20168;-90
2023/02/03 19:07:43;;;;;;;0.50;0.40;;;;;;;;;;6305862;22;20198;-91
2023/02/03 19:10:54;;;;;;;0.40;0.40;;;;;;;;;;6305453;22;20295;-90
2023/02/03 19:14:03;;;;;;;0.40;0.40;;;;;;;;;;6304870;22;20173;-90
2023/02/03 19:17:09;;;;;;;0.30;0.30;;;;;;;;;;6305776;22;20157;-91
2023/02/03 19:20:17;;;;;;;0.30;0.30;;;;;;;;;;6304769;22;20227;-90
2023/02/03 19:23:23;;;;;;;0.30;0.30;;;;;;;;;;6306710;22;20164;-91
2023/02/03 19:26:29;;;;;;;0.40;0.40;;;;;;;;;;6304881;22;20237;-90
2023/02/03 19:29:40;;;;;;;0.50;0.50;;;;;;;;;;6303470;22;20184;-93
2023/02/03 19:32:47;;;;;;;1.27;0.67;;;;;;;;;;6311188;22;20206;-92
2023/02/03 19:35:52;;;;;;;0.53;0.53;;;;;;;;;;6307371;22;20592;-91